createdAt,value
2018-01-14T00:00:07.614Z,5.40
2018-01-14T00:02:35.055Z,5.50
2018-01-14T00:05:03.252Z,5.50
2018-01-14T00:07:30.687Z,5.50
2018-01-14T00:09:58.898Z,5.50
2018-01-14T00:12:26.324Z,5.50
2018-01-14T00:14:54.531Z,5.40
2018-01-14T00:17:21.951Z,5.40
2018-01-14T00:19:50.146Z,5.40
2018-01-14T00:22:17.571Z,5.40
2018-01-14T00:24:45.012Z,5.40
2018-01-14T00:27:12.439Z,5.40
2018-01-14T00:29:39.874Z,5.30
2018-01-14T00:32:07.297Z,5.20
2018-01-14T00:34:34.727Z,5.30
2018-01-14T00:37:02.146Z,5.30
2018-01-14T00:39:29.588Z,5.20
2018-01-14T00:41:57.790Z,5.30
2018-01-14T00:44:25.219Z,5.20
2018-01-14T00:46:53.419Z,5.30
2018-01-14T00:49:20.830Z,5.20
2018-01-14T00:51:48.258Z,5.20
2018-01-14T00:54:15.692Z,5.20
2018-01-14T00:56:43.126Z,5.20
2018-01-14T00:59:10.560Z,5.10
2018-01-14T01:01:37.987Z,5.20
2018-01-14T01:04:05.421Z,5.10
2018-01-14T01:06:32.850Z,5.10
2018-01-14T01:09:00.282Z,5.10
2018-01-14T01:11:27.715Z,5.10
2018-01-14T01:13:55.152Z,5.00
2018-01-14T01:16:22.587Z,5.10
2018-01-14T01:21:24.047Z,5.00
2018-01-14T01:23:51.470Z,5.00
2018-01-14T01:26:18.911Z,5.00
2018-01-14T01:28:46.348Z,4.90
2018-01-14T01:31:13.770Z,4.90
2018-01-14T01:33:41.973Z,4.90
2018-01-14T01:36:09.395Z,4.90
2018-01-14T01:38:37.603Z,4.80
2018-01-14T01:41:05.027Z,4.80
2018-01-14T01:43:33.230Z,4.90
2018-01-14T01:46:00.657Z,4.80
2018-01-14T01:48:28.868Z,4.80
2018-01-14T01:50:56.295Z,4.80
2018-01-14T01:53:23.730Z,4.80
2018-01-14T01:55:51.155Z,4.80
2018-01-14T01:58:18.593Z,4.80
2018-01-14T02:00:46.026Z,4.80
2018-01-14T02:03:13.454Z,4.80
2018-01-14T02:05:40.927Z,4.70
2018-01-14T02:08:09.115Z,4.80
2018-01-14T02:10:36.540Z,4.80
2018-01-14T02:13:03.976Z,4.80
2018-01-14T02:15:31.427Z,4.80
2018-01-14T02:17:58.866Z,4.70
2018-01-14T02:20:26.304Z,4.80
2018-01-14T02:22:53.733Z,4.80
2018-01-14T02:25:21.167Z,4.70
2018-01-14T02:27:48.600Z,4.60
2018-01-14T02:30:16.045Z,4.70
2018-01-14T02:32:43.473Z,4.70
2018-01-14T02:35:11.658Z,4.70
2018-01-14T02:37:39.099Z,4.70
2018-01-14T02:40:06.510Z,4.70
2018-01-14T02:42:33.947Z,4.70
2018-01-14T02:45:01.379Z,4.70
2018-01-14T02:47:29.585Z,4.60
2018-01-14T02:49:57.015Z,4.60
2018-01-14T02:52:25.202Z,4.50
2018-01-14T02:54:52.636Z,4.50
2018-01-14T02:57:20.828Z,4.50
2018-01-14T02:59:48.255Z,4.40
2018-01-14T03:02:15.687Z,4.50
2018-01-14T03:04:43.118Z,4.50
2018-01-14T03:07:10.555Z,4.50
2018-01-14T03:09:37.978Z,4.40
2018-01-14T03:12:05.402Z,4.30
2018-01-14T03:14:32.839Z,4.30
2018-01-14T03:17:00.271Z,4.40
2018-01-14T03:19:28.474Z,4.10
2018-01-14T03:21:55.898Z,4.10
2018-01-14T03:24:24.095Z,4.20
2018-01-14T03:26:51.524Z,4.10
2018-01-14T03:29:19.722Z,4.10
2018-01-14T03:31:47.154Z,4.10
2018-01-14T03:34:15.363Z,4.20
2018-01-14T03:36:42.794Z,4.20
2018-01-14T03:39:10.991Z,4.10
2018-01-14T03:41:38.411Z,4.10
2018-01-14T03:44:06.610Z,4.20
2018-01-14T03:46:34.037Z,4.20
2018-01-14T03:49:01.477Z,4.10
2018-01-14T03:51:28.903Z,4.20
2018-01-14T03:53:56.319Z,4.20
2018-01-14T03:56:24.518Z,4.20
2018-01-14T03:58:51.948Z,4.20
2018-01-14T04:01:20.142Z,4.20
2018-01-14T04:03:47.581Z,4.10
2018-01-14T04:06:15.779Z,4.00
2018-01-14T04:08:43.203Z,4.00
2018-01-14T04:11:10.651Z,4.00
2018-01-14T04:13:38.083Z,4.00
2018-01-14T04:16:05.518Z,3.90
2018-01-14T04:18:32.942Z,3.90
2018-01-14T04:21:01.154Z,3.90
2018-01-14T04:23:28.584Z,3.90
2018-01-14T04:25:56.015Z,3.80
2018-01-14T04:28:23.438Z,3.80
2018-01-14T04:30:50.881Z,3.80
2018-01-14T04:33:18.310Z,3.90
2018-01-14T04:35:46.509Z,3.80
2018-01-14T04:38:13.938Z,3.80
2018-01-14T04:40:42.130Z,3.80
2018-01-14T04:43:09.555Z,3.80
2018-01-14T04:45:37.167Z,3.80
2018-01-14T04:48:04.599Z,3.80
2018-01-14T04:50:32.035Z,3.80
2018-01-14T04:53:00.285Z,3.80
2018-01-14T04:55:27.659Z,3.70
2018-01-14T04:57:55.090Z,3.70
2018-01-14T05:00:22.524Z,3.80
2018-01-14T05:02:49.942Z,3.80
2018-01-14T05:05:18.138Z,3.80
2018-01-14T05:07:45.586Z,3.80
2018-01-14T05:10:13.011Z,3.80
2018-01-14T05:12:40.447Z,3.70
2018-01-14T05:15:07.886Z,3.80
2018-01-14T05:17:35.339Z,3.80
2018-01-14T05:20:02.753Z,3.80
2018-01-14T05:22:30.953Z,3.70
2018-01-14T05:24:58.383Z,3.70
2018-01-14T05:27:26.588Z,3.80
2018-01-14T05:29:54.022Z,3.70
2018-01-14T05:32:22.213Z,3.80
2018-01-14T05:34:49.656Z,3.80
2018-01-14T05:37:17.849Z,3.90
2018-01-14T05:39:45.291Z,3.90
2018-01-14T05:42:12.729Z,3.90
2018-01-14T05:44:40.156Z,3.90
2018-01-14T05:47:07.591Z,3.90
2018-01-14T05:49:35.022Z,3.90
2018-01-14T05:52:03.208Z,3.80
2018-01-14T05:54:30.635Z,3.80
2018-01-14T05:56:58.831Z,3.70
2018-01-14T05:59:26.266Z,3.70
2018-01-14T06:01:54.472Z,3.80
2018-01-14T06:04:21.897Z,3.70
2018-01-14T06:06:49.333Z,3.70
2018-01-14T06:09:16.763Z,3.70
2018-01-14T06:11:44.213Z,3.60
2018-01-14T06:14:11.639Z,3.70
2018-01-14T06:16:39.839Z,3.60
2018-01-14T06:19:07.275Z,3.60
2018-01-14T06:21:35.479Z,3.60
2018-01-14T06:24:02.899Z,3.60
2018-01-14T06:26:31.101Z,3.70
2018-01-14T06:28:58.531Z,3.60
2018-01-14T06:31:26.739Z,3.70
2018-01-14T06:33:54.159Z,3.70
2018-01-14T06:36:22.360Z,3.70
2018-01-14T06:38:49.786Z,3.70
2018-01-14T06:41:17.987Z,3.70
2018-01-14T06:43:45.410Z,3.60
2018-01-14T06:46:13.617Z,3.60
2018-01-14T06:48:41.036Z,3.60
2018-01-14T06:51:08.460Z,3.60
2018-01-14T06:53:35.898Z,3.60
2018-01-14T06:56:03.315Z,3.70
2018-01-14T06:58:31.522Z,3.70
2018-01-14T07:00:58.950Z,3.70
2018-01-14T07:03:27.210Z,3.70
2018-01-14T07:05:54.640Z,3.70
2018-01-14T07:08:22.136Z,3.70
2018-01-14T07:10:50.407Z,3.60
2018-01-14T07:13:17.843Z,3.60
2018-01-14T07:15:45.287Z,3.60
2018-01-14T07:18:12.729Z,3.60
2018-01-14T07:20:40.235Z,3.50
2018-01-14T07:23:07.678Z,3.60
2018-01-14T07:25:35.106Z,3.60
2018-01-14T07:28:02.534Z,3.60
2018-01-14T07:30:29.976Z,3.60
2018-01-14T07:32:57.390Z,3.70
2018-01-14T07:35:24.830Z,3.70
2018-01-14T07:37:52.263Z,3.70
2018-01-14T07:40:19.702Z,3.70
2018-01-14T07:42:47.906Z,3.70
2018-01-14T07:45:15.432Z,3.70
2018-01-14T07:47:43.623Z,3.70
2018-01-14T07:50:11.055Z,3.70
2018-01-14T07:52:38.493Z,3.70
2018-01-14T07:55:05.928Z,3.70
2018-01-14T07:57:33.378Z,3.70
2018-01-14T08:00:00.824Z,3.60
2018-01-14T08:02:28.256Z,3.60
2018-01-14T08:04:56.462Z,3.70
2018-01-14T08:07:23.895Z,3.70
2018-01-14T08:09:52.095Z,3.70
2018-01-14T08:12:19.608Z,3.70
2018-01-14T08:14:47.033Z,3.80
2018-01-14T08:17:14.459Z,3.60
2018-01-14T08:19:41.899Z,3.60
2018-01-14T08:22:10.103Z,3.80
2018-01-14T08:24:37.534Z,3.80
2018-01-14T08:27:04.968Z,3.80
2018-01-14T08:29:33.158Z,3.90
2018-01-14T08:32:01.351Z,3.90
2018-01-14T08:34:28.779Z,3.90
2018-01-14T08:36:56.983Z,3.80
2018-01-14T08:39:24.406Z,3.80
2018-01-14T08:41:51.838Z,3.90
2018-01-14T08:44:19.271Z,3.80
2018-01-14T08:46:46.702Z,3.90
2018-01-14T08:49:14.128Z,3.90
2018-01-14T08:51:41.569Z,3.90
2018-01-14T08:54:08.999Z,3.90
2018-01-14T08:56:36.428Z,3.90
2018-01-14T08:59:03.864Z,3.90
2018-01-14T09:01:37.667Z,4.00
2018-01-14T09:04:05.128Z,3.90
2018-01-14T09:06:33.325Z,4.00
2018-01-14T09:09:00.764Z,4.00
2018-01-14T09:11:28.959Z,4.10
2018-01-14T09:13:56.408Z,4.00
2018-01-14T09:16:24.604Z,4.00
2018-01-14T09:18:52.056Z,4.00
2018-01-14T09:21:19.474Z,4.10
2018-01-14T09:23:46.911Z,4.00
2018-01-14T09:26:14.356Z,4.10
2018-01-14T09:28:41.852Z,4.20
2018-01-14T09:31:09.353Z,4.20
2018-01-14T09:33:36.768Z,4.20
2018-01-14T09:36:05.091Z,4.20
2018-01-14T09:38:32.612Z,4.20
2018-01-14T09:41:00.056Z,4.20
2018-01-14T09:43:27.524Z,4.30
2018-01-14T09:45:55.840Z,4.30
2018-01-14T09:48:23.274Z,4.30
2018-01-14T09:50:50.731Z,4.30
2018-01-14T09:53:18.171Z,4.50
2018-01-14T09:55:46.359Z,4.50
2018-01-14T09:58:13.798Z,4.50
2018-01-14T10:00:41.223Z,4.60
2018-01-14T10:03:08.676Z,4.50
2018-01-14T10:05:36.108Z,4.60
2018-01-14T10:08:03.529Z,4.50
2018-01-14T10:10:31.715Z,4.50
2018-01-14T10:12:59.923Z,4.60
2018-01-14T10:15:27.391Z,4.60
2018-01-14T10:17:54.799Z,4.70
2018-01-14T10:20:22.987Z,4.70
2018-01-14T10:22:50.442Z,4.70
2018-01-14T10:25:17.968Z,4.70
2018-01-14T10:27:45.382Z,4.70
2018-01-14T10:30:12.820Z,4.70
2018-01-14T10:32:40.313Z,4.80
2018-01-14T10:35:07.720Z,4.80
2018-01-14T10:37:35.919Z,4.80
2018-01-14T10:40:03.498Z,4.80
2018-01-14T10:42:30.995Z,4.80
2018-01-14T10:44:58.424Z,4.90
2018-01-14T10:47:25.992Z,4.90
2018-01-14T10:49:53.467Z,4.90
2018-01-14T10:52:20.916Z,5.00
2018-01-14T10:54:48.347Z,5.00
2018-01-14T10:57:15.789Z,5.10
2018-01-14T10:59:43.299Z,5.10
2018-01-14T11:02:10.731Z,5.20
2018-01-14T11:04:38.179Z,5.20
2018-01-14T11:07:05.630Z,5.20
2018-01-14T11:09:33.056Z,5.30
2018-01-14T11:12:00.483Z,5.30
2018-01-14T11:14:27.945Z,5.30
2018-01-14T11:16:55.371Z,5.30
2018-01-14T11:19:22.831Z,5.30
2018-01-14T11:21:50.246Z,5.40
2018-01-14T11:24:17.703Z,5.40
2018-01-14T11:26:45.874Z,5.50
2018-01-14T11:29:25.277Z,5.50
2018-01-14T11:31:52.690Z,5.50
2018-01-14T11:34:20.141Z,5.40
2018-01-14T11:36:47.636Z,5.50
2018-01-14T11:39:15.104Z,5.60
2018-01-14T11:41:42.568Z,5.70
2018-01-14T11:44:10.759Z,5.80
2018-01-14T11:46:38.963Z,5.90
2018-01-14T11:49:06.383Z,5.90
2018-01-14T11:51:34.584Z,6.10
2018-01-14T11:54:02.013Z,6.10
2018-01-14T11:56:30.278Z,6.10
2018-01-14T11:58:57.699Z,6.10
2018-01-14T12:01:25.128Z,6.10
2018-01-14T12:03:52.556Z,6.20
2018-01-14T12:06:20.755Z,6.30
2018-01-14T12:08:48.192Z,6.30
2018-01-14T12:11:15.620Z,6.30
2018-01-14T12:13:43.056Z,6.20
2018-01-14T12:16:10.557Z,6.10
2018-01-14T12:18:37.991Z,6.10
2018-01-14T12:21:05.414Z,6.00
2018-01-14T12:23:32.843Z,6.00
2018-01-14T12:26:01.047Z,6.00
2018-01-14T12:28:28.518Z,5.90
2018-01-14T12:30:55.974Z,6.00
2018-01-14T12:33:33.283Z,5.90
2018-01-14T12:36:00.754Z,5.90
2018-01-14T12:38:28.188Z,5.90
2018-01-14T12:40:55.620Z,5.90
2018-01-14T12:43:23.047Z,5.90
2018-01-14T12:45:51.232Z,5.90
2018-01-14T12:48:18.654Z,5.90
2018-01-14T12:50:46.085Z,5.90
2018-01-14T12:53:13.517Z,5.90
2018-01-14T12:55:40.940Z,5.90
2018-01-14T12:58:09.138Z,6.00
2018-01-14T13:00:36.554Z,6.00
2018-01-14T13:03:03.990Z,6.00
2018-01-14T13:05:31.471Z,6.00
2018-01-14T13:07:58.919Z,6.00
2018-01-14T13:10:26.351Z,6.00
2018-01-14T13:12:53.773Z,6.00
2018-01-14T13:15:21.199Z,6.00
2018-01-14T13:17:48.615Z,6.00
2018-01-14T13:20:16.043Z,6.00
2018-01-14T13:22:43.467Z,6.10
2018-01-14T13:25:10.900Z,6.20
2018-01-14T13:27:38.323Z,6.20
2018-01-14T13:30:05.750Z,6.30
2018-01-14T13:32:33.947Z,6.30
2018-01-14T13:35:01.377Z,6.30
2018-01-14T13:37:28.792Z,6.30
2018-01-14T13:39:56.287Z,6.40
2018-01-14T13:42:23.710Z,6.30
2018-01-14T13:44:51.152Z,6.30
2018-01-14T13:47:18.563Z,6.30
2018-01-14T13:49:46.764Z,6.30
2018-01-14T13:52:14.183Z,6.30
2018-01-14T13:54:41.615Z,6.30
2018-01-14T13:57:09.052Z,6.30
2018-01-14T13:59:36.487Z,6.30
2018-01-14T14:02:03.911Z,6.30
2018-01-14T14:04:31.354Z,6.40
2018-01-14T14:06:59.541Z,6.40
2018-01-14T14:09:26.982Z,6.40
2018-01-14T14:11:54.398Z,6.40
2018-01-14T14:14:21.832Z,6.50
2018-01-14T14:16:50.023Z,6.40
2018-01-14T14:19:17.455Z,6.40
2018-01-14T14:21:45.652Z,6.50
2018-01-14T14:24:13.077Z,6.50
2018-01-14T14:26:40.495Z,6.40
2018-01-14T14:29:07.927Z,6.40
2018-01-14T14:31:35.351Z,6.40
2018-01-14T14:34:02.821Z,6.30
2018-01-14T14:36:31.008Z,6.30
2018-01-14T14:38:58.439Z,6.30
2018-01-14T14:41:25.890Z,6.30
2018-01-14T14:43:53.331Z,6.30
2018-01-14T14:46:20.750Z,6.20
2018-01-14T14:48:48.188Z,6.20
2018-01-14T14:51:16.377Z,6.20
2018-01-14T14:53:43.803Z,6.20
2018-01-14T14:56:11.995Z,6.20
2018-01-14T14:58:40.213Z,6.20
2018-01-14T15:01:07.610Z,6.20
2018-01-14T15:03:35.811Z,6.10
2018-01-14T15:06:03.246Z,6.10
2018-01-14T15:08:31.438Z,6.10
2018-01-14T15:10:58.863Z,6.00
2018-01-14T15:13:26.282Z,6.00
2018-01-14T15:15:53.718Z,6.10
2018-01-14T15:18:21.136Z,6.00
2018-01-14T15:20:48.558Z,6.00
2018-01-14T15:23:15.983Z,6.10
2018-01-14T15:25:43.419Z,6.00
2018-01-14T15:28:11.614Z,6.00
2018-01-14T15:30:39.043Z,5.90
2018-01-14T15:33:07.235Z,5.90
2018-01-14T15:35:34.666Z,5.90
2018-01-14T15:38:02.082Z,5.90
2018-01-14T15:40:29.524Z,5.90
2018-01-14T15:42:56.946Z,5.80
2018-01-14T15:45:25.144Z,5.80
2018-01-14T15:47:52.565Z,5.80
2018-01-14T15:50:20.002Z,5.70
2018-01-14T15:52:47.413Z,5.70
2018-01-14T15:55:14.858Z,5.70
2018-01-14T15:57:43.034Z,5.70
2018-01-14T16:00:11.286Z,5.70
2018-01-14T16:02:38.718Z,5.70
2018-01-14T16:05:06.924Z,5.60
2018-01-14T16:07:34.342Z,5.60
2018-01-14T16:10:01.775Z,5.60
2018-01-14T16:12:29.199Z,5.50
2018-01-14T16:14:57.400Z,5.40
2018-01-14T16:17:24.829Z,5.40
2018-01-14T16:19:52.257Z,5.40
2018-01-14T16:22:19.675Z,5.40
2018-01-14T16:24:47.106Z,5.30
2018-01-14T16:27:15.315Z,5.30
2018-01-14T16:29:42.772Z,5.30
2018-01-14T16:32:10.205Z,5.30
2018-01-14T16:34:38.409Z,5.30
2018-01-14T16:37:05.834Z,5.20
2018-01-14T16:39:34.018Z,5.20
2018-01-14T16:42:01.443Z,5.20
2018-01-14T16:44:28.872Z,5.00
2018-01-14T16:46:56.292Z,4.90
2018-01-14T16:49:23.724Z,4.90
2018-01-14T16:51:51.138Z,4.80
2018-01-14T16:54:18.565Z,4.80
2018-01-14T16:56:46.042Z,4.70
2018-01-14T16:59:13.475Z,4.60
2018-01-14T17:01:40.913Z,4.60
2018-01-14T17:04:09.114Z,4.40
2018-01-14T17:06:36.543Z,4.30
2018-01-14T17:09:04.743Z,4.20
2018-01-14T17:11:32.175Z,4.10
2018-01-14T17:14:00.417Z,4.00
2018-01-14T17:16:28.554Z,3.90
2018-01-14T17:18:55.979Z,3.90
2018-01-14T17:21:24.184Z,3.60
2018-01-14T17:23:51.606Z,3.60
2018-01-14T17:26:19.032Z,3.60
2018-01-14T17:28:46.454Z,3.60
2018-01-14T17:31:13.888Z,3.60
2018-01-14T17:33:42.074Z,3.30
2018-01-14T17:36:09.518Z,3.20
2018-01-14T17:38:37.706Z,3.20
2018-01-14T17:41:05.143Z,3.20
2018-01-14T17:43:33.345Z,3.20
2018-01-14T17:46:00.775Z,3.20
2018-01-14T17:48:28.967Z,3.10
2018-01-14T17:50:56.415Z,3.10
2018-01-14T17:53:24.604Z,2.90
2018-01-14T17:55:52.041Z,2.90
2018-01-14T17:58:20.231Z,2.90
2018-01-14T18:00:47.679Z,2.90
2018-01-14T18:03:15.862Z,2.80
2018-01-14T18:05:43.295Z,2.80
2018-01-14T18:08:11.500Z,2.50
2018-01-14T18:10:38.983Z,2.50
2018-01-14T18:13:06.426Z,2.50
2018-01-14T18:15:33.863Z,2.50
2018-01-14T18:18:01.299Z,2.50
2018-01-14T18:20:29.554Z,2.40
2018-01-14T18:22:56.923Z,2.40
2018-01-14T18:25:24.371Z,2.40
2018-01-14T18:27:51.804Z,2.20
2018-01-14T18:30:19.244Z,2.20
2018-01-14T18:32:46.668Z,2.20
2018-01-14T18:35:14.891Z,1.80
2018-01-14T18:37:42.307Z,1.80
2018-01-14T18:40:10.558Z,1.70
2018-01-14T18:42:38.014Z,1.70
2018-01-14T18:45:05.456Z,1.70
2018-01-14T18:47:46.737Z,1.80
2018-01-14T18:50:14.164Z,1.80
2018-01-14T18:52:41.595Z,1.80
2018-01-14T18:55:09.031Z,1.70
2018-01-14T18:57:37.272Z,1.70
2018-01-14T19:00:04.696Z,1.70
2018-01-14T19:02:32.134Z,1.70
2018-01-14T19:05:00.315Z,1.70
2018-01-14T19:07:27.735Z,1.70
2018-01-14T19:09:55.165Z,1.70
2018-01-14T19:12:22.639Z,1.70
2018-01-14T19:14:50.079Z,1.60
2018-01-14T19:17:17.543Z,1.60
2018-01-14T19:19:45.039Z,1.60
2018-01-14T19:22:13.232Z,1.60
2018-01-14T19:24:40.710Z,1.60
2018-01-14T19:27:08.143Z,1.60
2018-01-14T19:29:36.342Z,1.60
2018-01-14T19:32:03.867Z,1.60
2018-01-14T19:34:32.105Z,1.60
2018-01-14T19:37:00.311Z,1.60
2018-01-14T19:39:28.500Z,1.60
2018-01-14T19:41:56.705Z,1.50
2018-01-14T19:44:24.216Z,1.50
2018-01-14T19:46:51.646Z,1.60
2018-01-14T19:49:19.093Z,1.60
2018-01-14T19:51:46.536Z,1.50
2018-01-14T19:54:14.054Z,1.50
2018-01-14T19:56:42.280Z,1.50
2018-01-14T19:59:09.727Z,1.50
2018-01-14T20:01:37.296Z,1.50
2018-01-14T20:04:04.815Z,1.50
2018-01-14T20:06:33.048Z,1.40
2018-01-14T20:09:00.458Z,1.30
2018-01-14T20:11:27.891Z,1.40
2018-01-14T20:13:56.184Z,1.20
2018-01-14T20:16:23.614Z,1.20
2018-01-14T20:18:51.207Z,1.30
2018-01-14T20:21:19.576Z,1.20
2018-01-14T20:23:47.019Z,1.20
2018-01-14T20:26:15.290Z,1.20
2018-01-14T20:28:42.731Z,1.10
2018-01-14T20:31:10.159Z,1.10
2018-01-14T20:33:37.611Z,1.20
2018-01-14T20:36:05.088Z,1.10
2018-01-14T20:38:34.113Z,1.20
2018-01-14T20:41:01.530Z,1.10
2018-01-14T20:43:29.041Z,1.10
2018-01-14T20:45:56.471Z,1.10
2018-01-14T20:48:23.899Z,1.10
2018-01-14T20:50:51.380Z,1.00
2018-01-14T20:53:18.801Z,1.00
2018-01-14T20:55:46.257Z,1.00
2018-01-14T20:58:13.680Z,0.90
2018-01-14T21:00:41.884Z,0.90
2018-01-14T21:03:09.330Z,0.90
2018-01-14T21:05:36.768Z,0.90
2018-01-14T21:08:04.968Z,0.90
2018-01-14T21:10:32.409Z,0.90
2018-01-14T21:13:00.602Z,0.90
2018-01-14T21:15:28.067Z,0.80
2018-01-14T21:17:55.486Z,0.90
2018-01-14T21:20:23.733Z,0.90
2018-01-14T21:22:51.214Z,0.90
2018-01-14T21:25:19.577Z,1.00
2018-01-14T21:27:46.973Z,1.00
2018-01-14T21:30:14.415Z,1.00
2018-01-14T21:32:42.615Z,0.90
2018-01-14T21:35:10.039Z,0.90
2018-01-14T21:37:38.243Z,0.80
2018-01-14T21:40:05.679Z,0.80
2018-01-14T21:42:33.892Z,0.80
2018-01-14T21:45:02.636Z,0.80
2018-01-14T21:47:30.834Z,0.80
2018-01-14T21:49:58.271Z,0.70
2018-01-14T21:52:25.690Z,0.60
2018-01-14T21:54:53.303Z,0.60
2018-01-14T21:57:20.781Z,0.60
2018-01-14T21:59:48.464Z,0.60
2018-01-14T22:02:16.670Z,0.60
2018-01-14T22:04:44.871Z,0.60
2018-01-14T22:07:12.302Z,0.60
2018-01-14T22:09:39.767Z,0.60
2018-01-14T22:12:08.000Z,0.60
2018-01-14T22:14:35.386Z,0.50
2018-01-14T22:17:02.856Z,0.60
2018-01-14T22:19:31.042Z,0.60
2018-01-14T22:21:59.249Z,0.50
2018-01-14T22:24:26.686Z,0.50
2018-01-14T22:26:54.127Z,0.60
2018-01-14T22:29:22.332Z,0.70
2018-01-14T22:31:49.750Z,0.60
2018-01-14T22:34:17.955Z,0.60
2018-01-14T22:36:45.384Z,0.60
2018-01-14T22:39:13.580Z,0.60
2018-01-14T22:41:41.015Z,0.60
2018-01-14T22:44:09.219Z,0.50
2018-01-14T22:46:36.651Z,0.50
2018-01-14T22:49:04.851Z,0.40
2018-01-14T22:51:32.291Z,0.40
2018-01-14T22:54:00.531Z,0.40
2018-01-14T22:56:27.964Z,0.40
2018-01-14T22:58:55.390Z,0.40
2018-01-14T23:01:24.595Z,0.40
2018-01-14T23:03:52.872Z,0.30
2018-01-14T23:06:20.338Z,0.40
2018-01-14T23:08:47.752Z,0.40
2018-01-14T23:11:15.178Z,0.40
2018-01-14T23:13:42.655Z,0.50
2018-01-14T23:16:10.115Z,0.50
2018-01-14T23:18:37.535Z,0.50
2018-01-14T23:21:04.984Z,0.40
2018-01-14T23:23:32.399Z,0.30
2018-01-14T23:26:00.603Z,0.30
2018-01-14T23:28:28.232Z,0.30
2018-01-14T23:30:56.498Z,0.30
2018-01-14T23:33:24.038Z,0.30
2018-01-14T23:35:51.476Z,0.30
2018-01-14T23:38:18.904Z,0.30
2018-01-14T23:40:46.330Z,0.30
2018-01-14T23:43:13.767Z,0.30
2018-01-14T23:45:41.191Z,0.30
2018-01-14T23:48:08.621Z,0.30
2018-01-14T23:50:36.098Z,0.30
2018-01-14T23:53:03.522Z,0.30
2018-01-14T23:55:31.754Z,0.20
2018-01-14T23:57:59.199Z,0.20
